createdAt,value
2016-09-21T00:00:07.900Z,0
2016-09-21T00:00:48.624Z,0
2016-09-21T00:01:29.293Z,0
2016-09-21T00:02:09.975Z,0
2016-09-21T00:02:50.694Z,0
2016-09-21T00:03:31.375Z,0
2016-09-21T00:04:12.081Z,0
2016-09-21T00:04:52.749Z,0
2016-09-21T00:05:33.443Z,0
2016-09-21T00:06:14.103Z,0
2016-09-21T00:06:54.814Z,0
2016-09-21T00:07:35.516Z,0
2016-09-21T00:08:16.161Z,0
2016-09-21T00:08:56.882Z,0
2016-09-21T00:09:37.530Z,0
2016-09-21T00:10:18.217Z,0
2016-09-21T00:10:58.927Z,0
2016-09-21T00:11:39.624Z,0
2016-09-21T00:12:20.334Z,0
2016-09-21T00:13:01.004Z,0
2016-09-21T00:13:41.690Z,0
2016-09-21T00:14:22.395Z,0
2016-09-21T00:15:03.058Z,0
2016-09-21T00:15:43.691Z,0
2016-09-21T00:16:24.386Z,0
2016-09-21T00:17:05.113Z,0
2016-09-21T00:17:45.793Z,0
2016-09-21T00:18:26.478Z,0
2016-09-21T00:19:07.117Z,0
2016-09-21T00:19:47.835Z,0
2016-09-21T00:20:28.574Z,0
2016-09-21T00:21:09.291Z,0
2016-09-21T00:21:50.005Z,0
2016-09-21T00:22:30.693Z,0
2016-09-21T00:23:11.389Z,0
2016-09-21T00:23:51.993Z,0
2016-09-21T00:24:32.701Z,0
2016-09-21T00:25:13.380Z,0
2016-09-21T00:25:54.065Z,0
2016-09-21T00:26:34.786Z,0
2016-09-21T00:27:15.473Z,0
2016-09-21T00:27:56.175Z,0
2016-09-21T00:28:36.889Z,0
2016-09-21T00:29:17.592Z,0
2016-09-21T00:29:58.269Z,0
2016-09-21T00:30:38.943Z,0
2016-09-21T00:31:19.611Z,0
2016-09-21T00:32:00.329Z,0
2016-09-21T00:32:41.000Z,0
2016-09-21T00:33:21.689Z,0
2016-09-21T00:34:02.396Z,0
2016-09-21T00:34:43.101Z,0
2016-09-21T00:35:23.786Z,0
2016-09-21T00:36:04.561Z,0
2016-09-21T00:36:45.233Z,0
2016-09-21T00:37:25.947Z,0
2016-09-21T00:38:06.594Z,0
2016-09-21T00:38:47.310Z,0
2016-09-21T00:39:28.022Z,0
2016-09-21T00:40:08.705Z,0
2016-09-21T00:40:49.364Z,0
2016-09-21T00:41:30.108Z,0
2016-09-21T00:42:10.800Z,0
2016-09-21T00:42:51.452Z,0
2016-09-21T00:43:32.149Z,0
2016-09-21T00:44:12.817Z,0
2016-09-21T00:44:53.548Z,0
2016-09-21T00:45:34.233Z,0
2016-09-21T00:46:14.853Z,0
2016-09-21T00:46:55.563Z,0
2016-09-21T00:47:36.221Z,0
2016-09-21T00:48:16.911Z,0
2016-09-21T00:48:57.584Z,0
2016-09-21T00:49:38.272Z,0
2016-09-21T00:50:18.904Z,0
2016-09-21T00:50:59.605Z,0
2016-09-21T00:51:40.311Z,0
2016-09-21T00:52:20.956Z,0
2016-09-21T00:53:01.631Z,0
2016-09-21T00:53:42.352Z,0
2016-09-21T00:54:23.056Z,0
2016-09-21T00:55:03.752Z,0
2016-09-21T00:55:44.437Z,0
2016-09-21T00:56:25.084Z,0
2016-09-21T00:57:05.788Z,0
2016-09-21T00:57:46.422Z,0
2016-09-21T00:58:27.091Z,0
2016-09-21T00:59:07.768Z,0
2016-09-21T00:59:48.457Z,0
2016-09-21T01:00:29.214Z,0
2016-09-21T01:01:09.875Z,0
2016-09-21T01:01:50.549Z,0
2016-09-21T01:02:31.259Z,0
2016-09-21T01:03:11.946Z,0
2016-09-21T01:03:52.638Z,0
2016-09-21T01:04:33.353Z,0
2016-09-21T01:05:14.038Z,0
2016-09-21T01:05:54.731Z,0
2016-09-21T01:06:35.405Z,0
2016-09-21T01:07:16.101Z,0
2016-09-21T01:07:56.776Z,0
2016-09-21T01:08:37.488Z,0
2016-09-21T01:09:18.125Z,0
2016-09-21T01:09:58.768Z,0
2016-09-21T01:10:39.498Z,0
2016-09-21T01:11:20.159Z,0
2016-09-21T01:12:00.827Z,0
2016-09-21T01:12:41.494Z,0
2016-09-21T01:13:22.218Z,0
2016-09-21T01:14:02.869Z,0
2016-09-21T01:14:43.544Z,0
2016-09-21T01:15:24.253Z,0
2016-09-21T01:16:04.982Z,0
2016-09-21T01:16:45.646Z,0
2016-09-21T01:17:26.368Z,0
2016-09-21T01:18:07.037Z,0
2016-09-21T01:18:47.713Z,0
2016-09-21T01:19:28.385Z,0
2016-09-21T01:20:09.101Z,0
2016-09-21T01:20:49.756Z,0
2016-09-21T01:21:30.447Z,0
2016-09-21T01:22:11.139Z,0
2016-09-21T01:22:51.864Z,0
2016-09-21T01:23:32.541Z,0
2016-09-21T01:24:13.328Z,0
2016-09-21T01:24:53.969Z,0
2016-09-21T01:25:34.628Z,0
2016-09-21T01:26:15.351Z,0
2016-09-21T01:26:56.030Z,0
2016-09-21T01:27:36.750Z,0
2016-09-21T01:28:17.406Z,0
2016-09-21T01:28:58.103Z,0
2016-09-21T01:29:38.773Z,0
2016-09-21T01:30:19.469Z,0
2016-09-21T01:31:00.138Z,0
2016-09-21T01:31:40.854Z,0
2016-09-21T01:32:21.549Z,0
2016-09-21T01:33:02.253Z,0
2016-09-21T01:33:42.912Z,0
2016-09-21T01:34:23.543Z,0
2016-09-21T01:35:04.236Z,0
2016-09-21T01:35:44.933Z,0
2016-09-21T01:36:25.684Z,0
2016-09-21T01:37:06.344Z,0
2016-09-21T01:37:47.013Z,0
2016-09-21T01:38:27.719Z,0
2016-09-21T01:39:08.423Z,0
2016-09-21T01:39:49.128Z,0
2016-09-21T01:40:29.825Z,0
2016-09-21T01:41:10.515Z,0
2016-09-21T01:41:51.195Z,0
2016-09-21T01:42:31.837Z,0
2016-09-21T01:43:12.589Z,0
2016-09-21T01:43:53.278Z,0
2016-09-21T01:44:33.951Z,0
2016-09-21T01:45:14.663Z,0
2016-09-21T01:45:55.340Z,0
2016-09-21T01:46:36.038Z,0
2016-09-21T01:47:16.701Z,0
2016-09-21T01:47:57.399Z,0
2016-09-21T01:48:38.062Z,0
2016-09-21T01:49:18.741Z,0
2016-09-21T01:49:59.381Z,0
2016-09-21T01:50:40.033Z,0
2016-09-21T01:51:20.700Z,0
2016-09-21T01:52:01.401Z,0
2016-09-21T01:52:42.042Z,0
2016-09-21T01:53:22.690Z,0
2016-09-21T01:54:03.390Z,0
2016-09-21T01:54:44.033Z,0
2016-09-21T01:55:24.739Z,0
2016-09-21T01:56:05.375Z,0
2016-09-21T01:56:46.035Z,0
2016-09-21T01:57:26.754Z,0
2016-09-21T01:58:07.454Z,0
2016-09-21T01:58:48.162Z,0
2016-09-21T01:59:28.818Z,0
2016-09-21T02:00:09.508Z,0
2016-09-21T02:00:50.177Z,0
2016-09-21T02:01:30.871Z,0
2016-09-21T02:02:11.531Z,0
2016-09-21T02:02:52.213Z,0
2016-09-21T02:03:32.906Z,0
2016-09-21T02:04:13.615Z,0
2016-09-21T02:04:54.329Z,0
2016-09-21T02:05:35.013Z,0
2016-09-21T02:06:15.791Z,0
2016-09-21T02:06:56.434Z,0
2016-09-21T02:07:37.128Z,0
2016-09-21T02:08:17.815Z,0
2016-09-21T02:08:58.502Z,0
2016-09-21T02:09:39.228Z,0
2016-09-21T02:10:19.865Z,0
2016-09-21T02:11:00.560Z,0
2016-09-21T02:11:41.245Z,0
2016-09-21T02:12:21.973Z,0
2016-09-21T02:13:02.649Z,0
2016-09-21T02:13:43.373Z,0
2016-09-21T02:14:24.029Z,0
2016-09-21T02:15:04.749Z,0
2016-09-21T02:15:45.478Z,0
2016-09-21T02:16:26.199Z,0
2016-09-21T02:17:06.867Z,0
2016-09-21T02:17:47.514Z,0
2016-09-21T02:18:28.162Z,0
2016-09-21T02:19:08.831Z,0
2016-09-21T02:19:49.559Z,0
2016-09-21T02:20:30.183Z,0
2016-09-21T02:21:10.849Z,0
2016-09-21T02:21:51.520Z,0
2016-09-21T02:22:32.197Z,0
2016-09-21T02:23:12.878Z,0
2016-09-21T02:23:53.606Z,0
2016-09-21T02:24:34.302Z,0
2016-09-21T02:25:14.984Z,0
2016-09-21T02:25:55.654Z,0
2016-09-21T02:26:36.346Z,0
2016-09-21T02:27:17.031Z,0
2016-09-21T02:27:57.720Z,0
2016-09-21T02:28:38.454Z,0
2016-09-21T02:29:19.142Z,0
2016-09-21T02:29:59.796Z,0
2016-09-21T02:30:40.496Z,0
2016-09-21T02:31:21.218Z,0
2016-09-21T02:32:01.886Z,0
2016-09-21T02:32:42.563Z,0
2016-09-21T02:33:23.255Z,0
2016-09-21T02:34:03.916Z,0
2016-09-21T02:34:44.579Z,0
2016-09-21T02:35:25.290Z,0
2016-09-21T02:36:06.001Z,0
2016-09-21T02:36:46.669Z,0
2016-09-21T02:37:27.359Z,0
2016-09-21T02:38:08.059Z,0
2016-09-21T02:38:48.712Z,0
2016-09-21T02:39:29.408Z,0
2016-09-21T02:40:10.074Z,0
2016-09-21T02:40:50.734Z,0
2016-09-21T02:41:31.377Z,0
2016-09-21T02:42:12.041Z,0
2016-09-21T02:42:52.710Z,0
2016-09-21T02:43:33.397Z,0
2016-09-21T02:44:14.095Z,0
2016-09-21T02:44:54.791Z,0
2016-09-21T02:45:35.483Z,0
2016-09-21T02:46:16.176Z,0
2016-09-21T02:46:56.833Z,0
2016-09-21T02:47:37.540Z,0
2016-09-21T02:48:18.230Z,0
2016-09-21T02:48:58.886Z,0
2016-09-21T02:49:39.540Z,0
2016-09-21T02:50:20.245Z,0
2016-09-21T02:51:00.911Z,0
2016-09-21T02:51:41.565Z,0
2016-09-21T02:52:22.288Z,0
2016-09-21T02:53:02.983Z,0
2016-09-21T02:53:43.641Z,0
2016-09-21T02:54:24.380Z,0
2016-09-21T02:55:05.028Z,0
2016-09-21T02:55:45.702Z,0
2016-09-21T02:56:26.387Z,0
2016-09-21T02:57:07.042Z,0
2016-09-21T02:57:47.742Z,0
2016-09-21T02:58:28.435Z,0
2016-09-21T02:59:09.173Z,0
2016-09-21T02:59:49.845Z,0
2016-09-21T03:00:30.570Z,0
2016-09-21T03:01:11.260Z,0
2016-09-21T03:01:51.910Z,0
2016-09-21T03:02:32.543Z,0
2016-09-21T03:03:13.250Z,0
2016-09-21T03:03:53.918Z,0
2016-09-21T03:04:34.618Z,0
2016-09-21T03:05:15.349Z,0
2016-09-21T03:05:56.766Z,0
2016-09-21T03:06:36.758Z,0
2016-09-21T03:07:17.421Z,0
2016-09-21T03:07:58.107Z,0
2016-09-21T03:08:38.755Z,0
2016-09-21T03:09:19.412Z,0
2016-09-21T03:10:00.079Z,0
2016-09-21T03:10:40.775Z,0
2016-09-21T03:11:21.426Z,0
2016-09-21T03:12:02.111Z,0
2016-09-21T03:12:42.776Z,0
2016-09-21T03:13:23.456Z,0
2016-09-21T03:14:04.180Z,0
2016-09-21T03:14:44.876Z,0
2016-09-21T03:15:25.553Z,0
2016-09-21T03:16:06.245Z,0
2016-09-21T03:16:46.916Z,0
2016-09-21T03:17:27.596Z,0
2016-09-21T03:18:08.286Z,0
2016-09-21T03:18:48.980Z,0
2016-09-21T03:19:29.681Z,0
2016-09-21T03:20:10.346Z,0
2016-09-21T03:20:51.022Z,0
2016-09-21T03:21:31.708Z,0
2016-09-21T03:22:12.440Z,0
2016-09-21T03:22:53.125Z,0
2016-09-21T03:23:33.783Z,0
2016-09-21T03:24:14.504Z,0
2016-09-21T03:24:55.253Z,0
2016-09-21T03:25:35.924Z,0
2016-09-21T03:26:16.586Z,0
2016-09-21T03:26:57.319Z,0
2016-09-21T03:27:38.004Z,0
2016-09-21T03:28:18.734Z,0
2016-09-21T03:28:59.416Z,0
2016-09-21T03:29:40.149Z,0
2016-09-21T03:30:20.820Z,0
2016-09-21T03:31:01.524Z,0
2016-09-21T03:31:42.223Z,0
2016-09-21T03:32:22.918Z,0
2016-09-21T03:33:03.607Z,0
2016-09-21T03:33:44.296Z,0
2016-09-21T03:34:24.982Z,0
2016-09-21T03:35:05.686Z,0
2016-09-21T03:35:46.394Z,0
2016-09-21T03:36:27.106Z,0
2016-09-21T03:37:07.768Z,0
2016-09-21T03:37:48.455Z,0
2016-09-21T03:38:29.100Z,0
2016-09-21T03:39:09.753Z,0
2016-09-21T03:39:50.429Z,0
2016-09-21T03:40:31.065Z,0
2016-09-21T03:41:11.759Z,0
2016-09-21T03:41:52.446Z,0
2016-09-21T03:42:33.127Z,0
2016-09-21T03:43:13.824Z,0
2016-09-21T03:43:54.462Z,0
2016-09-21T03:44:35.097Z,0
2016-09-21T03:45:15.808Z,0
2016-09-21T03:45:56.508Z,0
2016-09-21T03:46:37.207Z,0
2016-09-21T03:47:17.913Z,0
2016-09-21T03:47:58.596Z,0
2016-09-21T03:48:39.279Z,0
2016-09-21T03:49:19.933Z,0
2016-09-21T03:50:00.634Z,0
2016-09-21T03:50:41.314Z,0
2016-09-21T03:51:22.004Z,0
2016-09-21T03:52:02.644Z,0
2016-09-21T03:52:43.304Z,0
2016-09-21T03:53:24.024Z,0
2016-09-21T03:54:04.728Z,0
2016-09-21T03:54:45.414Z,0
2016-09-21T03:55:26.101Z,0
2016-09-21T03:56:06.772Z,0
2016-09-21T03:56:47.521Z,0
2016-09-21T03:57:28.202Z,0
2016-09-21T03:58:08.885Z,0
2016-09-21T03:58:49.565Z,0
2016-09-21T03:59:30.282Z,0
2016-09-21T04:00:10.975Z,0
2016-09-21T04:00:51.659Z,0
2016-09-21T04:01:32.360Z,0
2016-09-21T04:02:13.049Z,0
2016-09-21T04:02:53.677Z,0
2016-09-21T04:03:34.331Z,0
2016-09-21T04:04:15.019Z,0
2016-09-21T04:04:55.729Z,0
2016-09-21T04:05:36.440Z,0
2016-09-21T04:06:17.132Z,0
2016-09-21T04:06:57.814Z,0
2016-09-21T04:07:38.496Z,0
2016-09-21T04:08:19.194Z,0
2016-09-21T04:08:59.897Z,0
2016-09-21T04:09:40.603Z,0
2016-09-21T04:10:21.317Z,0
2016-09-21T04:11:02.015Z,0
2016-09-21T04:11:42.713Z,0
2016-09-21T04:12:23.385Z,0
2016-09-21T04:13:04.047Z,0
2016-09-21T04:13:44.737Z,0
2016-09-21T04:14:25.404Z,0
2016-09-21T04:15:06.062Z,0
2016-09-21T04:15:46.741Z,0
2016-09-21T04:16:27.411Z,0
2016-09-21T04:17:08.075Z,0
2016-09-21T04:17:48.754Z,0
2016-09-21T04:18:29.440Z,0
2016-09-21T04:19:10.148Z,0
2016-09-21T04:19:50.840Z,0
2016-09-21T04:20:31.504Z,0
2016-09-21T04:21:12.168Z,0
2016-09-21T04:21:52.878Z,0
2016-09-21T04:22:33.517Z,0
2016-09-21T04:23:14.197Z,0
2016-09-21T04:23:54.856Z,0
2016-09-21T04:24:35.546Z,0
2016-09-21T04:25:16.219Z,0
2016-09-21T04:25:56.901Z,0
2016-09-21T04:26:37.568Z,0
2016-09-21T04:27:18.223Z,0
2016-09-21T04:27:58.885Z,0
2016-09-21T04:28:39.602Z,0
2016-09-21T04:29:20.235Z,0
2016-09-21T04:30:00.903Z,0
2016-09-21T04:30:41.623Z,0
2016-09-21T04:31:22.303Z,0
2016-09-21T04:32:03.007Z,0
2016-09-21T04:32:43.688Z,0
2016-09-21T04:33:24.421Z,0
2016-09-21T04:34:05.068Z,0
2016-09-21T04:34:45.742Z,0
2016-09-21T04:35:26.411Z,0
2016-09-21T04:36:07.105Z,0
2016-09-21T04:36:47.820Z,0
2016-09-21T04:37:28.545Z,0
2016-09-21T04:38:09.208Z,0
2016-09-21T04:38:49.878Z,0
2016-09-21T04:39:30.536Z,0
2016-09-21T04:40:11.221Z,0
2016-09-21T04:40:51.893Z,0
2016-09-21T04:41:32.592Z,0
2016-09-21T04:42:13.313Z,0
2016-09-21T04:42:53.988Z,0
2016-09-21T04:43:34.701Z,0
2016-09-21T04:44:15.402Z,0
2016-09-21T04:44:56.088Z,0
2016-09-21T04:45:36.779Z,0
2016-09-21T04:46:17.443Z,0
2016-09-21T04:46:58.106Z,0
2016-09-21T04:47:38.821Z,0
2016-09-21T04:48:19.519Z,0
2016-09-21T04:49:00.188Z,0
2016-09-21T04:49:40.904Z,0
2016-09-21T04:50:21.548Z,0
2016-09-21T04:51:02.203Z,0
2016-09-21T04:51:42.846Z,0
2016-09-21T04:52:23.515Z,0
2016-09-21T04:53:04.217Z,0
2016-09-21T04:53:44.892Z,0
2016-09-21T04:54:25.592Z,0
2016-09-21T04:55:06.254Z,0
2016-09-21T04:55:46.946Z,0
2016-09-21T04:56:27.618Z,0
2016-09-21T04:57:08.314Z,0
2016-09-21T04:57:48.993Z,0
2016-09-21T04:58:29.643Z,20
2016-09-21T04:59:10.288Z,24
2016-09-21T04:59:50.973Z,28
2016-09-21T05:00:31.660Z,28
2016-09-21T05:01:12.379Z,28
2016-09-21T05:01:53.052Z,24
2016-09-21T05:02:33.740Z,24
2016-09-21T05:03:14.481Z,24
2016-09-21T05:03:55.115Z,24
2016-09-21T05:04:35.768Z,24
2016-09-21T05:05:16.466Z,24
2016-09-21T05:05:57.133Z,24
2016-09-21T05:06:37.795Z,24
2016-09-21T05:07:18.496Z,24
2016-09-21T05:07:59.189Z,24
2016-09-21T05:08:39.880Z,28
2016-09-21T05:09:20.616Z,28
2016-09-21T05:10:01.260Z,24
2016-09-21T05:10:41.931Z,28
2016-09-21T05:11:22.649Z,28
2016-09-21T05:12:03.344Z,28
2016-09-21T05:12:44.007Z,28
2016-09-21T05:13:24.693Z,28
2016-09-21T05:14:05.358Z,28
2016-09-21T05:14:46.030Z,28
2016-09-21T05:15:26.706Z,28
2016-09-21T05:16:07.352Z,28
2016-09-21T05:16:48.040Z,28
2016-09-21T05:17:28.693Z,28
2016-09-21T05:18:09.343Z,28
2016-09-21T05:18:50.035Z,28
2016-09-21T05:19:30.702Z,28
2016-09-21T05:20:11.347Z,28
2016-09-21T05:20:52.004Z,28
2016-09-21T05:21:32.681Z,24
2016-09-21T05:22:13.366Z,24
2016-09-21T05:22:54.053Z,24
2016-09-21T05:23:34.786Z,24
2016-09-21T05:24:15.452Z,24
2016-09-21T05:24:56.192Z,24
2016-09-21T05:25:36.866Z,28
2016-09-21T05:26:17.534Z,28
2016-09-21T05:26:58.237Z,28
2016-09-21T05:27:38.952Z,28
2016-09-21T05:28:19.640Z,28
2016-09-21T05:29:00.308Z,28
2016-09-21T05:29:40.995Z,28
2016-09-21T05:30:21.692Z,28
2016-09-21T05:31:02.382Z,28
2016-09-21T05:31:43.034Z,28
2016-09-21T05:32:23.709Z,28
2016-09-21T05:33:04.432Z,28
2016-09-21T05:33:45.145Z,28
2016-09-21T05:34:25.867Z,28
2016-09-21T05:35:06.588Z,28
2016-09-21T05:35:47.248Z,28
2016-09-21T05:36:27.973Z,28
2016-09-21T05:37:08.648Z,32
2016-09-21T05:37:49.359Z,28
2016-09-21T05:38:30.041Z,28
2016-09-21T05:39:10.687Z,28
2016-09-21T05:39:51.402Z,28
2016-09-21T05:40:32.132Z,28
2016-09-21T05:41:12.744Z,28
2016-09-21T05:41:53.398Z,32
2016-09-21T05:42:34.098Z,32
2016-09-21T05:43:14.784Z,4
2016-09-21T05:43:55.456Z,4
2016-09-21T05:44:36.157Z,0
2016-09-21T05:45:16.842Z,4
2016-09-21T05:45:57.511Z,4
2016-09-21T05:46:38.149Z,4
2016-09-21T05:47:18.838Z,4
2016-09-21T05:47:59.485Z,4
2016-09-21T05:48:40.144Z,4
2016-09-21T05:49:20.873Z,8
2016-09-21T05:50:01.529Z,8
2016-09-21T05:50:42.208Z,4
2016-09-21T05:51:22.860Z,8
2016-09-21T05:52:03.507Z,4
2016-09-21T05:52:44.210Z,8
2016-09-21T05:53:24.914Z,8
2016-09-21T05:54:05.593Z,8
2016-09-21T05:54:46.295Z,8
2016-09-21T05:55:26.948Z,8
2016-09-21T05:56:07.625Z,8
2016-09-21T05:56:48.295Z,12
2016-09-21T05:57:28.995Z,12
2016-09-21T05:58:09.694Z,12
2016-09-21T05:58:50.446Z,12
2016-09-21T05:59:31.109Z,12
2016-09-21T06:00:11.844Z,16
2016-09-21T06:00:52.510Z,12
2016-09-21T06:01:33.276Z,12
2016-09-21T06:02:13.954Z,20
2016-09-21T06:02:54.620Z,20
2016-09-21T06:03:35.296Z,20
2016-09-21T06:04:15.995Z,20
2016-09-21T06:04:56.691Z,28
2016-09-21T06:05:37.371Z,28
2016-09-21T06:06:18.028Z,28
2016-09-21T06:06:58.727Z,28
2016-09-21T06:07:39.429Z,32
2016-09-21T06:08:20.159Z,32
2016-09-21T06:09:00.846Z,36
2016-09-21T06:09:41.529Z,36
2016-09-21T06:10:22.176Z,36
2016-09-21T06:11:02.852Z,40
2016-09-21T06:11:43.532Z,40
2016-09-21T06:12:24.238Z,44
2016-09-21T06:13:05.000Z,44
2016-09-21T06:13:45.682Z,48
2016-09-21T06:14:26.341Z,48
2016-09-21T06:15:06.987Z,48
2016-09-21T06:15:47.693Z,52
2016-09-21T06:16:28.373Z,56
2016-09-21T06:17:09.057Z,60
2016-09-21T06:17:49.741Z,64
2016-09-21T06:18:30.427Z,64
2016-09-21T06:19:11.109Z,68
2016-09-21T06:19:51.832Z,68
2016-09-21T06:20:32.518Z,72
2016-09-21T06:21:13.202Z,260
2016-09-21T06:21:53.878Z,336
2016-09-21T06:22:34.611Z,372
2016-09-21T06:23:15.337Z,388
2016-09-21T06:23:56.016Z,388
2016-09-21T06:24:36.730Z,396
2016-09-21T06:25:17.405Z,400
2016-09-21T06:25:58.091Z,400
2016-09-21T06:26:38.788Z,404
2016-09-21T06:27:19.460Z,408
2016-09-21T06:28:00.140Z,408
2016-09-21T06:28:40.811Z,408
2016-09-21T06:29:21.443Z,408
2016-09-21T06:30:09.099Z,412
2016-09-21T06:30:49.847Z,412
2016-09-21T06:31:30.632Z,416
2016-09-21T06:32:11.337Z,420
2016-09-21T06:32:52.137Z,420
2016-09-21T06:33:32.837Z,420
2016-09-21T06:34:13.568Z,420
2016-09-21T06:34:54.364Z,424
2016-09-21T06:35:35.064Z,424
2016-09-21T06:36:15.851Z,424
2016-09-21T06:36:56.586Z,428
2016-09-21T06:37:37.327Z,424
2016-09-21T06:38:18.039Z,428
2016-09-21T06:38:58.785Z,428
2016-09-21T06:39:39.510Z,424
2016-09-21T06:40:20.270Z,424
2016-09-21T06:41:00.928Z,428
2016-09-21T06:41:41.687Z,428
2016-09-21T06:42:22.462Z,432
2016-09-21T06:43:03.143Z,432
2016-09-21T06:43:43.941Z,440
2016-09-21T06:44:24.637Z,440
2016-09-21T06:45:05.400Z,444
2016-09-21T06:45:46.164Z,444
2016-09-21T06:46:26.968Z,444
2016-09-21T06:47:07.688Z,444
2016-09-21T06:47:48.409Z,448
2016-09-21T06:48:29.156Z,444
2016-09-21T06:49:09.914Z,444
2016-09-21T06:49:50.668Z,444
2016-09-21T06:50:31.522Z,448
2016-09-21T06:51:12.102Z,444
2016-09-21T06:51:52.857Z,444
2016-09-21T06:52:33.573Z,444
2016-09-21T06:53:14.294Z,444
2016-09-21T06:53:55.006Z,448
2016-09-21T06:54:35.824Z,448
2016-09-21T06:55:16.583Z,452
2016-09-21T06:55:57.286Z,448
2016-09-21T06:56:38.069Z,448
2016-09-21T06:57:18.853Z,448
2016-09-21T06:57:59.567Z,448
2016-09-21T06:58:40.231Z,448
2016-09-21T06:59:20.965Z,448
2016-09-21T07:00:01.755Z,448
2016-09-21T07:00:42.556Z,448
2016-09-21T07:01:23.318Z,452
2016-09-21T07:02:04.139Z,452
2016-09-21T07:02:44.898Z,456
2016-09-21T07:03:25.640Z,452
2016-09-21T07:04:06.376Z,456
2016-09-21T07:04:47.138Z,460
2016-09-21T07:05:27.829Z,456
2016-09-21T07:06:08.611Z,456
2016-09-21T07:06:49.384Z,456
2016-09-21T07:07:30.138Z,456
2016-09-21T07:08:10.869Z,456
2016-09-21T07:08:51.567Z,460
2016-09-21T07:09:32.303Z,456
2016-09-21T07:10:12.980Z,456
2016-09-21T07:10:53.716Z,456
2016-09-21T07:11:34.470Z,456
2016-09-21T07:12:15.213Z,460
2016-09-21T07:12:56.732Z,460
2016-09-21T07:13:37.491Z,460
2016-09-21T07:14:18.231Z,460
2016-09-21T07:14:58.989Z,460
2016-09-21T07:15:39.775Z,460
2016-09-21T07:16:20.539Z,460
2016-09-21T07:17:01.349Z,460
2016-09-21T07:17:42.241Z,456
2016-09-21T07:18:22.971Z,456
2016-09-21T07:19:03.716Z,460
2016-09-21T07:19:44.395Z,428
2016-09-21T07:20:25.158Z,448
2016-09-21T07:21:05.864Z,452
2016-09-21T07:21:46.619Z,456
2016-09-21T07:22:27.356Z,456
2016-09-21T07:23:08.097Z,452
2016-09-21T07:23:48.892Z,448
2016-09-21T07:24:29.649Z,448
2016-09-21T07:25:10.534Z,448
2016-09-21T07:25:51.369Z,444
2016-09-21T07:26:32.171Z,432
2016-09-21T07:27:13.108Z,452
2016-09-21T07:27:54.006Z,428
2016-09-21T07:28:34.909Z,452
2016-09-21T07:29:15.731Z,456
2016-09-21T07:29:56.558Z,456
2016-09-21T07:30:37.412Z,452
2016-09-21T07:31:18.249Z,452
2016-09-21T07:31:59.224Z,452
2016-09-21T07:32:40.208Z,452
2016-09-21T07:33:20.928Z,452
2016-09-21T07:34:01.785Z,440
2016-09-21T07:34:43.759Z,436
2016-09-21T07:35:24.569Z,432
2016-09-21T07:36:06.565Z,428
2016-09-21T07:36:48.777Z,444
2016-09-21T07:37:31.837Z,440
2016-09-21T07:38:13.621Z,444
2016-09-21T07:38:54.531Z,444
2016-09-21T07:39:35.507Z,440
2016-09-21T07:40:16.258Z,424
2016-09-21T07:40:58.226Z,436
2016-09-21T07:41:39.428Z,428
2016-09-21T07:42:20.250Z,424
2016-09-21T07:43:01.271Z,424
2016-09-21T07:43:42.409Z,428
2016-09-21T07:44:24.625Z,424
2016-09-21T07:45:05.560Z,428
2016-09-21T07:45:46.616Z,428
2016-09-21T07:46:27.621Z,428
2016-09-21T07:47:08.865Z,424
2016-09-21T07:47:49.806Z,436
2016-09-21T07:48:30.764Z,432
2016-09-21T07:49:11.752Z,436
2016-09-21T07:49:52.874Z,440
2016-09-21T07:50:33.782Z,436
2016-09-21T07:51:14.633Z,432
2016-09-21T07:51:55.451Z,424
2016-09-21T07:52:37.433Z,420
2016-09-21T07:53:18.142Z,428
2016-09-21T07:53:59.085Z,424
2016-09-21T07:54:39.830Z,420
2016-09-21T07:55:20.623Z,420
2016-09-21T07:56:01.467Z,416
2016-09-21T07:56:42.239Z,420
2016-09-21T07:57:23.016Z,416
2016-09-21T07:58:03.955Z,416
2016-09-21T07:58:44.782Z,416
2016-09-21T07:59:25.508Z,428
2016-09-21T08:00:06.256Z,424
2016-09-21T08:00:47.002Z,424
2016-09-21T08:01:27.720Z,420
2016-09-21T08:02:08.521Z,408
2016-09-21T08:02:49.559Z,416
2016-09-21T08:03:30.306Z,416
2016-09-21T08:04:11.099Z,416
2016-09-21T08:04:51.962Z,420
2016-09-21T08:05:32.718Z,416
2016-09-21T08:06:13.414Z,412
2016-09-21T08:06:54.143Z,408
2016-09-21T08:07:36.061Z,400
2016-09-21T08:08:16.933Z,424
2016-09-21T08:08:57.809Z,424
2016-09-21T08:09:38.621Z,424
2016-09-21T08:10:19.501Z,424
2016-09-21T08:11:00.375Z,420
2016-09-21T08:11:42.298Z,416
2016-09-21T08:12:23.193Z,424
2016-09-21T08:13:04.146Z,412
2016-09-21T08:13:46.040Z,420
2016-09-21T08:14:26.867Z,420
2016-09-21T08:15:07.785Z,416
2016-09-21T08:15:49.330Z,416
2016-09-21T08:16:31.072Z,416
2016-09-21T08:17:11.871Z,416
2016-09-21T08:17:52.795Z,416
2016-09-21T08:18:33.745Z,416
2016-09-21T08:19:14.636Z,416
2016-09-21T08:19:55.598Z,416
2016-09-21T08:20:36.560Z,412
2016-09-21T08:21:17.378Z,416
2016-09-21T08:21:58.173Z,408
2016-09-21T08:22:38.897Z,416
2016-09-21T08:23:20.733Z,412
2016-09-21T08:24:01.684Z,412
2016-09-21T08:24:42.508Z,416
2016-09-21T08:25:23.415Z,408
2016-09-21T08:26:04.208Z,412
2016-09-21T08:26:45.673Z,412
2016-09-21T08:27:26.903Z,412
2016-09-21T08:28:07.818Z,408
2016-09-21T08:28:48.667Z,412
2016-09-21T08:29:29.534Z,408
2016-09-21T08:30:10.432Z,408
2016-09-21T08:30:51.310Z,408
2016-09-21T08:31:33.201Z,408
2016-09-21T08:32:14.929Z,404
2016-09-21T08:32:56.018Z,408
2016-09-21T08:33:36.902Z,408
2016-09-21T08:34:18.714Z,408
2016-09-21T08:34:59.727Z,408
2016-09-21T08:35:40.728Z,408
2016-09-21T08:36:21.484Z,408
2016-09-21T08:37:02.842Z,400
2016-09-21T08:37:43.971Z,408
2016-09-21T08:38:24.848Z,408
2016-09-21T08:39:06.068Z,404
2016-09-21T08:39:46.945Z,412
2016-09-21T08:40:28.405Z,412
2016-09-21T08:41:08.729Z,412
2016-09-21T08:41:49.732Z,412
2016-09-21T08:42:30.856Z,404
2016-09-21T08:44:49.968Z,412
2016-09-21T08:45:30.784Z,408
2016-09-21T08:46:11.524Z,408
2016-09-21T08:46:53.043Z,412
2016-09-21T08:47:33.136Z,408
2016-09-21T08:48:14.189Z,412
2016-09-21T08:48:56.033Z,408
2016-09-21T08:49:36.874Z,408
2016-09-21T08:50:17.937Z,408
2016-09-21T08:50:58.879Z,412
2016-09-21T08:51:39.675Z,408
2016-09-21T08:52:20.487Z,412
2016-09-21T08:53:01.377Z,404
2016-09-21T08:53:42.256Z,412
2016-09-21T08:54:23.157Z,408
2016-09-21T08:55:03.933Z,412
2016-09-21T08:55:44.703Z,412
2016-09-21T08:56:25.586Z,404
2016-09-21T08:57:06.367Z,412
2016-09-21T08:57:47.229Z,412
2016-09-21T08:58:28.340Z,408
2016-09-21T08:59:09.349Z,412
2016-09-21T08:59:50.074Z,408
2016-09-21T09:00:31.242Z,408
2016-09-21T09:01:12.114Z,408
2016-09-21T09:01:53.016Z,412
2016-09-21T09:02:33.837Z,412
2016-09-21T09:03:14.776Z,412
2016-09-21T09:03:55.788Z,412
2016-09-21T09:04:36.605Z,412
2016-09-21T09:10:19.791Z,412
2016-09-21T09:11:00.596Z,412
2016-09-21T09:11:41.366Z,408
2016-09-21T09:12:22.059Z,412
2016-09-21T09:13:02.832Z,412
2016-09-21T09:13:43.592Z,396
2016-09-21T09:14:24.345Z,416
2016-09-21T09:15:05.093Z,416
2016-09-21T09:15:45.872Z,412
2016-09-21T09:16:26.554Z,416
2016-09-21T09:17:07.341Z,400
2016-09-21T09:17:48.095Z,412
2016-09-21T09:18:28.826Z,412
2016-09-21T09:19:09.565Z,412
2016-09-21T09:19:50.307Z,412
2016-09-21T09:20:31.056Z,412
2016-09-21T09:21:11.777Z,412
2016-09-21T09:21:52.524Z,416
2016-09-21T09:22:33.258Z,408
2016-09-21T09:23:14.023Z,412
2016-09-21T09:23:55.321Z,412
2016-09-21T09:24:35.524Z,412
2016-09-21T09:25:16.242Z,416
2016-09-21T09:25:56.984Z,412
2016-09-21T09:26:37.696Z,416
2016-09-21T09:27:18.406Z,416
2016-09-21T09:27:59.162Z,412
2016-09-21T09:28:40.780Z,412
2016-09-21T09:29:21.583Z,412
2016-09-21T09:30:02.351Z,412
2016-09-21T09:30:43.095Z,412
2016-09-21T09:31:23.814Z,412
2016-09-21T09:32:04.576Z,412
2016-09-21T09:32:45.543Z,408
2016-09-21T09:33:26.281Z,404
2016-09-21T09:34:07.054Z,412
2016-09-21T09:34:47.797Z,412
2016-09-21T09:35:28.591Z,412
2016-09-21T09:36:09.332Z,416
2016-09-21T09:36:50.082Z,416
2016-09-21T09:37:30.828Z,416
2016-09-21T09:38:11.764Z,416
2016-09-21T09:38:52.517Z,400
2016-09-21T09:39:33.271Z,416
2016-09-21T09:40:14.051Z,404
2016-09-21T09:40:54.769Z,416
2016-09-21T09:41:35.497Z,412
2016-09-21T09:42:16.239Z,412
2016-09-21T09:42:57.118Z,416
2016-09-21T09:43:37.905Z,416
2016-09-21T09:44:18.635Z,412
2016-09-21T09:44:59.358Z,412
2016-09-21T09:45:40.126Z,404
2016-09-21T09:46:21.373Z,416
2016-09-21T09:47:02.143Z,412
2016-09-21T09:47:42.890Z,416
2016-09-21T09:48:24.412Z,412
2016-09-21T09:49:05.100Z,412
2016-09-21T09:49:45.921Z,420
2016-09-21T09:50:26.977Z,412
2016-09-21T09:51:07.887Z,392
2016-09-21T09:51:48.633Z,396